Time;durP1;ratioP1;P1;durP2;ratioP2;P2;SDS_P1;SDS_P2;PMS_P1;PMS_P2;Temp;Humidity;BMP_temperature;BMP_pressure;BME280_temperature;BME280_humidity;BME280_pressure;Samples;Min_cycle;Max_cycle;Signal;HPM_P1;HPM_P2
2023/05/17 00:00:29;;;;;;;5.27;1.50;;;;;;;12.91;55.96;100382.22;5075253;28;20025;-71
2023/05/17 00:02:55;;;;;;;6.47;1.30;;;;;;;12.89;56.18;100387.50;5086325;28;20046;-70
2023/05/17 00:05:20;;;;;;;6.05;1.65;;;;;;;12.89;56.35;100395.44;5083056;28;20024;-70
2023/05/17 00:07:47;;;;;;;7.20;1.57;;;;;;;12.83;56.49;100389.38;5082865;28;20513;-70
2023/05/17 00:10:12;;;;;;;8.00;1.55;;;;;;;12.78;56.61;100387.66;5087981;28;20092;-70
2023/05/17 00:12:38;;;;;;;9.47;1.60;;;;;;;12.74;56.56;100393.00;5092282;28;20045;-71
2023/05/17 00:15:04;;;;;;;6.40;1.63;;;;;;;12.69;56.70;100389.53;5076726;28;20025;-71
2023/05/17 00:17:29;;;;;;;6.55;1.40;;;;;;;12.67;57.03;100394.81;5077006;28;20055;-71
2023/05/17 00:19:55;;;;;;;6.72;1.60;;;;;;;12.67;57.14;100392.19;5083843;28;20447;-71
2023/05/17 00:22:20;;;;;;;6.90;1.30;;;;;;;12.64;57.08;100387.78;5098874;28;20384;-70
2023/05/17 00:24:46;;;;;;;5.33;1.40;;;;;;;12.63;57.38;100383.41;5075419;28;20050;-71
2023/05/17 00:27:11;;;;;;;5.20;1.30;;;;;;;12.61;57.30;100379.03;5080167;28;20032;-71
2023/05/17 00:29:37;;;;;;;7.90;1.50;;;;;;;12.58;57.21;100374.66;5080817;28;20044;-71
2023/05/17 00:32:02;;;;;;;8.48;2.17;;;;;;;12.53;57.57;100371.19;5080398;28;20031;-71
2023/05/17 00:34:28;;;;;;;13.07;3.30;;;;;;;12.50;57.64;100373.88;5079579;28;20503;-71
2023/05/17 00:36:53;;;;;;;6.07;1.57;;;;;;;12.46;57.47;100372.16;5087312;28;20020;-71
2023/05/17 00:39:19;;;;;;;7.25;1.50;;;;;;;12.41;58.02;100373.94;5101036;28;20127;-71
2023/05/17 00:41:44;;;;;;;6.33;1.40;;;;;;;12.40;57.71;100372.19;5081360;28;20024;-71
2023/05/17 00:44:10;;;;;;;7.37;1.47;;;;;;;12.35;57.75;100370.47;5080397;28;20164;-71
2023/05/17 00:46:35;;;;;;;7.50;1.90;;;;;;;12.31;58.11;100374.03;5079175;28;20274;-71
2023/05/17 00:49:01;;;;;;;5.90;1.10;;;;;;;12.29;57.99;100372.28;5078918;28;20593;-70
2023/05/17 00:51:27;;;;;;;6.43;1.50;;;;;;;12.26;58.04;100365.31;5080356;28;20035;-71
2023/05/17 00:53:53;;;;;;;8.32;1.50;;;;;;;12.26;58.33;100369.69;5078975;28;20020;-70
2023/05/17 00:56:19;;;;;;;11.82;2.90;;;;;;;12.24;58.35;100375.00;5080204;28;20059;-71
2023/05/17 00:58:44;;;;;;;11.30;1.93;;;;;;;12.24;58.06;100372.38;5091934;28;20028;-71
2023/05/17 01:01:10;;;;;;;7.82;1.77;;;;;;;12.24;58.02;100366.19;5098735;28;20024;-70
2023/05/17 01:03:36;;;;;;;13.63;3.43;;;;;;;12.18;58.17;100373.28;5088241;28;20033;-71
2023/05/17 01:06:01;;;;;;;8.68;1.70;;;;;;;12.09;58.51;100362.81;5086272;28;20028;-71
2023/05/17 01:08:26;;;;;;;5.20;1.50;;;;;;;12.05;58.56;100363.72;5086361;28;20366;-71
2023/05/17 01:11:00;;;;;;;8.50;1.40;;;;;;;12.01;58.60;100360.25;5096700;28;20020;-70
2023/05/17 01:13:55;;;;;;;6.00;1.40;;;;;;;12.01;58.80;100367.28;5088348;28;20019;-71
2023/05/17 01:16:29;;;;;;;7.47;1.95;;;;;;;11.98;58.77;100368.16;5079865;28;20032;-71
2023/05/17 01:19:20;;;;;;;8.77;1.90;;;;;;;11.93;58.91;100367.28;5086489;28;20031;-71
2023/05/17 01:22:05;;;;;;;10.32;2.80;;;;;;;11.89;58.49;100365.56;5103027;28;20047;-71
2023/05/17 01:24:31;;;;;;;7.93;1.50;;;;;;;11.83;58.64;100360.34;5079706;28;20032;-71
2023/05/17 01:26:59;;;;;;;11.00;3.13;;;;;;;11.80;58.73;100360.38;5079659;28;20509;-71
2023/05/17 01:29:28;;;;;;;13.63;3.80;;;;;;;11.75;58.67;100355.13;5079775;28;20255;-71
2023/05/17 01:31:55;;;;;;;6.82;2.00;;;;;;;11.72;58.71;100357.78;5077997;28;20050;-71
2023/05/17 01:34:25;;;;;;;5.53;1.40;;;;;;;11.65;58.92;100358.72;5069311;28;20411;-71
2023/05/17 01:36:51;;;;;;;6.97;1.33;;;;;;;11.62;59.03;100360.50;5085521;28;20400;-70
2023/05/17 01:39:17;;;;;;;7.07;1.30;;;;;;;11.58;59.26;100369.34;5098154;28;20031;-70
2023/05/17 01:41:48;;;;;;;5.93;1.33;;;;;;;11.53;59.04;100371.09;5081217;28;20031;-70
2023/05/17 01:44:31;;;;;;;7.13;1.33;;;;;;;11.47;59.37;100366.75;5079388;28;20400;-70
2023/05/17 01:47:12;;;;;;;6.20;1.10;;;;;;;11.43;59.22;100367.63;5087022;28;20055;-70
2023/05/17 01:49:40;;;;;;;5.85;1.13;;;;;;;11.38;59.60;100358.88;5098033;28;20050;-70
2023/05/17 01:52:20;;;;;;;6.40;1.23;;;;;;;11.38;59.60;100353.63;5099303;28;20085;-71
2023/05/17 01:55:13;;;;;;;5.32;1.00;;;;;;;11.38;59.18;100355.38;5099266;28;20051;-70
2023/05/17 01:57:42;;;;;;;7.17;1.37;;;;;;;11.37;59.41;100359.78;5083333;28;20024;-70
2023/05/17 02:00:10;;;;;;;10.13;1.23;;;;;;;11.29;58.97;100361.59;5078648;28;20111;-70
2023/05/17 02:02:36;;;;;;;6.70;1.27;;;;;;;11.20;59.54;100358.09;5086458;28;20024;-70
2023/05/17 02:05:01;;;;;;;7.07;1.53;;;;;;;11.15;59.39;100356.38;5082830;28;20108;-70
2023/05/17 02:07:27;;;;;;;6.32;1.30;;;;;;;11.08;59.82;100352.91;5088894;28;20052;-71
2023/05/17 02:09:52;;;;;;;7.50;1.27;;;;;;;11.04;59.47;100354.66;5078924;28;20035;-70
2023/05/17 02:12:18;;;;;;;7.05;1.40;;;;;;;11.01;59.58;100359.94;5079841;28;20020;-70
2023/05/17 02:14:43;;;;;;;7.50;1.20;;;;;;;10.98;59.71;100353.84;5078907;28;20020;-71
2023/05/17 02:17:09;;;;;;;5.77;1.10;;;;;;;10.93;59.67;100360.88;5078887;28;20017;-70
2023/05/17 02:19:34;;;;;;;6.75;1.27;;;;;;;10.88;59.59;100358.28;5086570;28;20028;-70
2023/05/17 02:22:00;;;;;;;9.00;1.10;;;;;;;10.81;59.78;100357.41;5101514;28;20054;-70
2023/05/17 02:24:25;;;;;;;5.03;0.93;;;;;;;10.77;59.94;100356.53;5078764;28;20514;-70
2023/05/17 02:26:51;;;;;;;7.18;1.10;;;;;;;10.72;59.71;100358.31;5078448;28;20513;-70
2023/05/17 02:29:16;;;;;;;6.70;1.20;;;;;;;10.68;60.17;100360.94;5078818;28;20125;-70
2023/05/17 02:31:42;;;;;;;8.60;1.00;;;;;;;10.66;59.93;100362.72;5078384;28;20029;-70
2023/05/17 02:34:07;;;;;;;5.80;1.03;;;;;;;10.64;59.96;100360.09;5078514;28;20531;-70
2023/05/17 02:36:33;;;;;;;5.47;1.10;;;;;;;10.60;60.20;100363.59;5081672;28;20293;-70
2023/05/17 02:38:58;;;;;;;7.47;1.20;;;;;;;10.54;60.14;100364.50;5098727;28;20024;-70
2023/05/17 02:41:24;;;;;;;4.57;0.83;;;;;;;10.51;60.42;100364.53;5081263;28;20054;-70
2023/05/17 02:43:49;;;;;;;6.47;1.27;;;;;;;10.47;60.40;100363.66;5078154;28;20852;-70
2023/05/17 02:46:15;;;;;;;5.50;1.00;;;;;;;10.45;60.08;100364.50;5078006;28;20032;-70
2023/05/17 02:48:41;;;;;;;5.75;1.10;;;;;;;10.43;60.65;100358.38;5077694;28;20052;-70
2023/05/17 02:51:06;;;;;;;8.90;1.00;;;;;;;10.41;60.21;100362.78;5089709;28;20492;-70
2023/05/17 02:53:32;;;;;;;8.20;1.13;;;;;;;10.39;60.61;100364.50;5098339;28;20028;-70
2023/05/17 02:55:57;;;;;;;7.73;1.30;;;;;;;10.34;60.16;100364.50;5097030;28;20158;-70
2023/05/17 02:58:26;;;;;;;6.53;1.13;;;;;;;10.31;60.27;100373.28;5078171;28;20056;-70
2023/05/17 03:00:52;;;;;;;4.03;0.90;;;;;;;10.28;60.73;100373.31;5077567;28;20050;-70
2023/05/17 03:03:17;;;;;;;8.47;1.20;;;;;;;10.24;60.74;100371.53;5093936;28;20659;-70
2023/05/17 03:05:43;;;;;;;5.43;0.93;;;;;;;10.19;60.72;100373.28;5088234;28;20024;-70
2023/05/17 03:08:08;;;;;;;8.03;1.27;;;;;;;10.15;60.76;100377.69;5085451;28;20028;-70
2023/05/17 03:10:34;;;;;;;7.35;1.10;;;;;;;10.11;60.54;100372.44;5076347;28;20078;-70
2023/05/17 03:13:00;;;;;;;4.97;1.00;;;;;;;10.05;60.75;100376.81;5078811;28;20024;-70
2023/05/17 03:15:28;;;;;;;9.50;1.50;;;;;;;9.99;60.76;100376.81;5077417;28;20021;-70
2023/05/17 03:17:54;;;;;;;6.30;1.15;;;;;;;9.91;61.15;100371.56;5079856;28;20028;-70
2023/05/17 03:20:19;;;;;;;5.25;1.30;;;;;;;9.87;61.00;100371.56;5080984;28;20033;-70
2023/05/17 03:22:45;;;;;;;5.10;1.30;;;;;;;9.88;61.20;100368.91;5098214;28;20029;-70
2023/05/17 03:25:10;;;;;;;9.00;1.33;;;;;;;9.87;61.42;100368.91;5077476;28;20039;-70
2023/05/17 03:27:36;;;;;;;10.17;1.20;;;;;;;9.83;61.46;100365.41;5076470;28;20312;-70
2023/05/17 03:30:01;;;;;;;7.07;1.50;;;;;;;9.77;61.12;100360.16;5076887;28;20493;-70
2023/05/17 03:32:27;;;;;;;5.33;1.17;;;;;;;9.75;61.60;100368.03;5076020;28;20027;-70
2023/05/17 03:34:53;;;;;;;4.20;1.00;;;;;;;9.74;61.61;100366.25;5078228;28;20270;-70
2023/05/17 03:37:18;;;;;;;4.78;1.05;;;;;;;9.72;61.84;100368.03;5087973;28;20016;-70
2023/05/17 03:39:43;;;;;;;5.10;1.03;;;;;;;9.69;61.46;100373.28;5093516;28;20028;-70
2023/05/17 03:42:09;;;;;;;5.20;1.07;;;;;;;9.63;61.67;100376.78;5077328;28;20567;-70
2023/05/17 03:44:35;;;;;;;5.50;0.97;;;;;;;9.61;61.51;100375.03;5077182;28;20024;-70
2023/05/17 03:47:00;;;;;;;5.40;1.00;;;;;;;9.60;61.82;100382.03;5085773;28;20043;-70
2023/05/17 03:49:26;;;;;;;7.67;1.10;;;;;;;9.57;61.54;100370.66;5097293;28;20068;-70
2023/05/17 03:51:51;;;;;;;5.23;0.90;;;;;;;9.55;61.86;100367.16;5096079;28;20080;-70
2023/05/17 03:54:16;;;;;;;5.43;1.00;;;;;;;9.53;61.96;100364.50;5097244;28;20262;-70
2023/05/17 03:56:45;;;;;;;7.20;1.23;;;;;;;9.54;61.75;100368.88;5088074;28;20032;-70
2023/05/17 03:59:12;;;;;;;7.43;1.15;;;;;;;9.56;61.85;100368.91;5088401;28;20024;-70
2023/05/17 04:01:38;;;;;;;5.60;1.00;;;;;;;9.56;61.81;100366.28;5096302;28;20020;-70
2023/05/17 04:04:04;;;;;;;5.50;0.90;;;;;;;9.52;61.83;100372.38;5080913;28;20373;-70
2023/05/17 04:06:30;;;;;;;4.85;1.17;;;;;;;9.47;61.97;100373.25;5086081;28;20024;-70
2023/05/17 04:08:58;;;;;;;4.87;1.27;;;;;;;9.42;61.89;100369.72;5080905;28;20020;-70
2023/05/17 04:11:25;;;;;;;5.88;1.10;;;;;;;9.37;61.87;100376.72;5077025;28;20031;-70
2023/05/17 04:13:52;;;;;;;7.38;1.00;;;;;;;9.29;62.03;100375.84;5077558;28;20071;-70
2023/05/17 04:16:18;;;;;;;7.03;0.95;;;;;;;9.27;62.17;100382.81;5076940;28;20084;-70
2023/05/17 04:18:44;;;;;;;6.67;0.80;;;;;;;9.24;62.29;100383.72;5084611;28;20531;-69
2023/05/17 04:21:10;;;;;;;6.20;1.10;;;;;;;9.22;62.54;100385.44;5090344;28;20027;-70
2023/05/17 04:23:35;;;;;;;7.15;1.20;;;;;;;9.19;62.18;100378.44;5083910;28;20033;-70
2023/05/17 04:26:03;;;;;;;7.17;1.00;;;;;;;9.15;62.47;100381.91;5076734;28;20382;-69
2023/05/17 04:28:28;;;;;;;5.60;1.00;;;;;;;9.11;62.54;100376.63;5076879;28;20322;-69
2023/05/17 04:30:55;;;;;;;5.97;1.20;;;;;;;9.07;62.51;100375.78;5076493;28;20553;-69
2023/05/17 04:33:20;;;;;;;6.05;1.02;;;;;;;9.05;62.74;100390.66;5076704;28;20044;-69
2023/05/17 04:35:46;;;;;;;4.77;1.10;;;;;;;9.04;62.92;100375.72;5079217;28;20016;-69
2023/05/17 04:38:12;;;;;;;4.47;0.98;;;;;;;9.02;62.72;100381.00;5092136;28;20106;-69
2023/05/17 04:40:37;;;;;;;5.10;0.90;;;;;;;9.03;62.86;100381.84;5087018;28;20477;-69
2023/05/17 04:43:03;;;;;;;5.88;1.00;;;;;;;9.05;62.83;100385.41;5083614;28;20021;-69
2023/05/17 04:45:29;;;;;;;7.87;0.83;;;;;;;9.07;62.56;100391.53;5095616;28;20028;-69
2023/05/17 04:47:55;;;;;;;6.95;0.95;;;;;;;9.06;62.64;100387.16;5095221;28;20511;-69
2023/05/17 04:50:21;;;;;;;6.10;1.00;;;;;;;9.03;62.58;100388.00;5097095;28;20028;-69
2023/05/17 04:52:46;;;;;;;5.07;1.23;;;;;;;9.06;62.61;100387.16;5097012;28;20024;-70
2023/05/17 04:55:15;;;;;;;6.07;1.07;;;;;;;9.07;62.80;100393.25;5095472;28;20032;-70
2023/05/17 04:57:41;;;;;;;4.50;0.90;;;;;;;9.06;62.72;100400.28;5079957;28;20029;-69
2023/05/17 05:00:08;;;;;;;5.93;1.10;;;;;;;9.06;62.72;100400.28;5076129;28;20143;-70
2023/05/17 05:02:34;;;;;;;6.60;1.03;;;;;;;9.05;62.89;100403.78;5082957;28;20021;-69
2023/05/17 05:05:01;;;;;;;6.43;1.15;;;;;;;9.09;62.65;100405.53;5080217;28;20034;-69
2023/05/17 05:07:26;;;;;;;6.22;1.23;;;;;;;9.18;62.83;100402.94;5084066;28;20025;-70
2023/05/17 05:09:52;;;;;;;6.60;1.33;;;;;;;9.28;62.48;100408.22;5076357;28;20028;-70
2023/05/17 05:12:18;;;;;;;8.73;1.20;;;;;;;9.37;62.30;100407.38;5079126;28;20052;-69
2023/05/17 05:14:53;;;;;;;;;;;;;;;;;;;;;
2023/05/17 05:17:19;;;;;;;6.38;0.70;;;;;;;9.54;61.75;100410.09;5079855;28;20035;-69
2023/05/17 05:19:44;;;;;;;7.67;1.00;;;;;;;9.60;61.72;100410.94;5086448;28;20114;-70
2023/05/17 05:22:10;;;;;;;6.72;1.20;;;;;;;9.69;61.41;100410.09;5100482;28;20025;-70
2023/05/17 05:24:36;;;;;;;5.93;1.40;;;;;;;9.75;61.44;100411.88;5078580;28;20029;-69
2023/05/17 05:27:01;;;;;;;9.80;1.13;;;;;;;9.83;61.26;100415.38;5078291;28;20107;-69
2023/05/17 05:29:27;;;;;;;5.72;1.02;;;;;;;9.91;61.13;100421.53;5079655;28;20032;-69
2023/05/17 05:31:52;;;;;;;8.40;1.20;;;;;;;10.02;60.58;100421.56;5079518;28;20032;-69
2023/05/17 05:34:18;;;;;;;5.30;0.93;;;;;;;10.07;60.67;100416.28;5078538;28;20024;-69
2023/05/17 05:36:43;;;;;;;7.00;1.10;;;;;;;10.13;60.17;100425.94;5080655;28;20043;-70
2023/05/17 05:39:09;;;;;;;6.07;1.17;;;;;;;10.25;60.39;100420.69;5085493;28;20027;-69
2023/05/17 05:41:34;;;;;;;7.65;1.23;;;;;;;10.34;59.93;100417.16;5085676;28;20392;-69
2023/05/17 05:44:00;;;;;;;4.87;1.03;;;;;;;10.50;59.73;100425.06;5099600;28;20372;-69
2023/05/17 05:46:26;;;;;;;4.90;1.10;;;;;;;10.54;59.48;100426.81;5099529;28;20031;-69
2023/05/17 05:48:51;;;;;;;9.32;1.25;;;;;;;10.60;59.24;100425.06;5099561;28;20738;-70
2023/05/17 05:51:18;;;;;;;6.97;1.20;;;;;;;10.68;59.42;100425.06;5089922;28;20020;-69
2023/05/17 05:53:43;;;;;;;5.97;1.02;;;;;;;10.81;59.28;100422.38;5077955;28;20052;-70
2023/05/17 05:56:09;;;;;;;7.30;1.23;;;;;;;11.00;58.93;100426.72;5081010;28;20078;-69
2023/05/17 05:58:35;;;;;;;7.05;1.15;;;;;;;11.18;58.43;100428.41;5079298;28;20017;-69
2023/05/17 06:01:01;;;;;;;8.75;1.25;;;;;;;11.29;58.10;100422.22;5077806;28;20029;-69
2023/05/17 06:03:27;;;;;;;8.57;1.40;;;;;;;11.41;58.34;100422.16;5084792;28;20024;-70
2023/05/17 06:05:52;;;;;;;6.03;1.08;;;;;;;11.42;58.05;100418.63;5085954;28;20035;-70
2023/05/17 06:08:17;;;;;;;7.00;1.10;;;;;;;11.44;57.88;100422.13;5086024;28;20112;-69
2023/05/17 06:10:43;;;;;;;6.20;1.00;;;;;;;11.53;57.55;100422.97;5078966;28;20074;-70
2023/05/17 06:13:08;;;;;;;7.50;1.50;;;;;;;11.59;58.01;100421.19;5080015;28;20016;-70
2023/05/17 06:15:34;;;;;;;8.68;1.20;;;;;;;11.63;57.76;100422.03;5078796;28;20392;-69
2023/05/17 06:18:00;;;;;;;6.33;1.20;;;;;;;11.71;57.74;100416.72;5081113;28;20071;-69
2023/05/17 06:20:25;;;;;;;11.65;2.50;;;;;;;11.82;57.63;100416.66;5098732;28;20041;-68
2023/05/17 06:22:51;;;;;;;5.63;1.00;;;;;;;11.85;57.50;100417.50;5102028;28;20110;-68
2023/05/17 06:25:16;;;;;;;7.40;1.07;;;;;;;11.87;56.83;100425.41;5084503;28;20013;-68
2023/05/17 06:27:42;;;;;;;6.47;0.85;;;;;;;12.02;56.88;100425.34;5078742;28;20020;-67
2023/05/17 06:30:09;;;;;;;6.83;1.10;;;;;;;12.22;56.75;100421.66;5076975;28;20815;-68
2023/05/17 06:32:35;;;;;;;8.43;1.02;;;;;;;12.30;56.47;100430.38;5083766;28;20027;-68
2023/05/17 06:35:00;;;;;;;8.20;0.93;;;;;;;12.42;56.38;100431.16;5083722;28;20033;-69
2023/05/17 06:37:26;;;;;;;5.22;0.90;;;;;;;12.47;56.04;100432.00;5083145;28;20013;-68
2023/05/17 06:40:03;;;;;;;6.83;1.20;;;;;;;12.61;55.83;100430.09;5078948;28;20051;-67
2023/05/17 06:42:29;;;;;;;5.10;0.90;;;;;;;12.75;55.54;100427.31;5077195;28;20032;-67
2023/05/17 06:44:55;;;;;;;7.53;1.10;;;;;;;13.00;55.26;100428.81;5077636;28;20025;-68
2023/05/17 06:47:20;;;;;;;6.43;1.07;;;;;;;13.17;54.96;100434.81;5076641;28;20067;-69
2023/05/17 06:49:45;;;;;;;6.63;1.03;;;;;;;13.34;54.80;100436.34;5097770;28;20401;-69
2023/05/17 06:52:11;;;;;;;5.67;1.10;;;;;;;13.41;53.71;100431.84;5081922;28;20609;-69
2023/05/17 06:54:36;;;;;;;4.93;0.83;;;;;;;13.53;53.76;100430.84;5076981;28;20773;-69
2023/05/17 06:57:03;;;;;;;9.23;1.33;;;;;;;13.62;52.79;100436.00;5077809;28;20097;-69
2023/05/17 06:59:29;;;;;;;6.68;1.10;;;;;;;13.70;53.01;100430.59;5077407;28;20032;-69
2023/05/17 07:01:54;;;;;;;7.90;1.27;;;;;;;13.81;52.19;100441.03;5081153;28;20028;-70
2023/05/17 07:04:20;;;;;;;5.80;0.97;;;;;;;13.86;52.22;100441.84;5078815;28;20113;-69
2023/05/17 07:06:46;;;;;;;7.43;1.30;;;;;;;13.90;51.66;100440.91;5087001;28;20024;-69
2023/05/17 07:09:12;;;;;;;9.03;1.30;;;;;;;13.98;51.52;100440.78;5078948;28;20028;-69
2023/05/17 07:11:37;;;;;;;9.23;1.20;;;;;;;14.03;52.00;100442.47;5077816;28;20051;-69
2023/05/17 07:14:03;;;;;;;5.65;1.02;;;;;;;14.18;51.63;100440.47;5078239;28;20107;-68
2023/05/17 07:16:28;;;;;;;7.10;1.40;;;;;;;14.30;51.10;100439.41;5077774;28;20032;-68
2023/05/17 07:18:54;;;;;;;5.63;0.80;;;;;;;14.48;51.25;100439.09;5085907;28;20028;-68
2023/05/17 07:21:20;;;;;;;4.93;1.15;;;;;;;14.71;50.77;100439.59;5093924;28;20019;-69
2023/05/17 07:23:45;;;;;;;6.30;1.00;;;;;;;14.85;50.32;100431.38;5083939;27;20044;-68
2023/05/17 07:26:11;;;;;;;6.18;1.40;;;;;;;14.92;49.69;100423.28;5077397;28;20041;-69
2023/05/17 07:28:36;;;;;;;8.00;1.43;;;;;;;15.03;49.54;100431.03;5088128;28;20085;-69
2023/05/17 07:31:02;;;;;;;5.60;1.20;;;;;;;15.16;49.64;100431.66;5097591;28;20035;-69
2023/05/17 07:33:27;;;;;;;7.57;1.00;;;;;;;15.41;49.36;100419.66;5097675;28;20036;-69
2023/05/17 07:35:53;;;;;;;6.63;1.20;;;;;;;15.69;49.17;100417.25;5090750;28;20051;-69
2023/05/17 07:38:18;;;;;;;7.40;1.30;;;;;;;15.97;48.96;100418.44;5077335;28;20059;-69
2023/05/17 07:40:44;;;;;;;5.50;1.07;;;;;;;16.15;48.26;100419.75;5079453;28;20027;-70
2023/05/17 07:43:09;;;;;;;6.70;1.10;;;;;;;16.27;47.90;100421.25;5075914;28;20024;-68
2023/05/17 07:45:35;;;;;;;5.23;1.00;;;;;;;16.39;47.93;100415.59;5077123;28;20920;-69
2023/05/17 07:48:00;;;;;;;7.30;1.10;;;;;;;16.56;47.92;100411.63;5077008;28;20091;-69
2023/05/17 07:50:26;;;;;;;6.10;1.00;;;;;;;16.74;47.40;100410.25;5078238;28;20286;-69
2023/05/17 07:52:52;;;;;;;5.07;1.15;;;;;;;16.89;47.33;100420.47;5080588;28;20051;-69
2023/05/17 07:55:19;;;;;;;8.40;0.83;;;;;;;17.00;46.89;100419.31;5077236;28;20032;-69
2023/05/17 07:57:46;;;;;;;6.68;1.08;;;;;;;17.07;46.14;100412.94;5079557;28;20064;-69
2023/05/17 08:00:12;;;;;;;6.65;1.20;;;;;;;17.08;45.68;100420.84;5076703;28;20413;-69
2023/05/17 08:02:38;;;;;;;6.07;1.10;;;;;;;17.10;45.70;100418.16;5084141;28;20024;-69
2023/05/17 08:05:04;;;;;;;5.67;1.13;;;;;;;17.18;45.98;100410.81;5081264;28;20087;-69
2023/05/17 08:07:30;;;;;;;6.53;1.00;;;;;;;17.25;45.08;100413.31;5085269;28;20097;-69
2023/05/17 08:09:55;;;;;;;7.03;1.10;;;;;;;17.32;45.34;100414.88;5076996;28;20032;-69
2023/05/17 08:12:21;;;;;;;6.80;1.35;;;;;;;17.37;45.17;100412.94;5077801;28;20407;-69
2023/05/17 08:14:46;;;;;;;7.00;1.40;;;;;;;17.40;45.46;100404.88;5087053;28;20055;-69
2023/05/17 08:17:12;;;;;;;8.07;1.17;;;;;;;17.52;45.49;100402.75;5079905;28;20090;-69
2023/05/17 08:19:37;;;;;;;4.90;0.80;;;;;;;17.69;45.47;100392.44;5084836;28;20029;-69
2023/05/17 08:22:03;;;;;;;5.88;1.00;;;;;;;17.86;44.73;100396.34;5099640;28;20028;-70
2023/05/17 08:24:29;;;;;;;6.30;1.45;;;;;;;17.89;44.07;100388.25;5086817;28;20467;-70
2023/05/17 08:26:55;;;;;;;7.00;1.50;;;;;;;17.81;43.93;100377.00;5096896;28;20024;-69
2023/05/17 08:29:20;;;;;;;8.27;1.60;;;;;;;17.70;44.00;100380.00;5096411;28;20034;-70
2023/05/17 08:31:46;;;;;;;6.97;1.00;;;;;;;17.61;44.21;100373.19;5096834;28;20040;-69
2023/05/17 08:34:12;;;;;;;4.50;1.20;;;;;;;17.60;44.40;100372.31;5096928;28;20406;-70
2023/05/17 08:36:37;;;;;;;7.50;1.10;;;;;;;17.69;44.46;100373.78;5082379;28;20020;-69
2023/05/17 08:39:03;;;;;;;5.53;1.00;;;;;;;17.80;44.29;100370.78;5076756;28;20400;-69
2023/05/17 08:41:29;;;;;;;7.68;1.40;;;;;;;17.98;44.12;100377.31;5078513;28;20108;-69
2023/05/17 08:43:57;;;;;;;7.55;1.23;;;;;;;18.10;43.48;100370.75;5076340;28;20541;-69
2023/05/17 08:46:25;;;;;;;7.68;1.23;;;;;;;18.17;42.84;100369.59;5076850;28;20469;-69
2023/05/17 08:48:54;;;;;;;4.50;1.10;;;;;;;18.15;42.50;100370.56;5080354;28;20044;-69
2023/05/17 08:51:20;;;;;;;5.18;1.20;;;;;;;18.13;42.65;100369.75;5086556;28;20059;-69
2023/05/17 08:53:46;;;;;;;8.77;1.50;;;;;;;18.12;43.03;100370.69;5080631;28;20115;-69
2023/05/17 08:56:15;;;;;;;7.35;1.20;;;;;;;18.20;43.00;100368.59;5083069;28;20019;-69
2023/05/17 08:58:43;;;;;;;6.60;1.30;;;;;;;18.28;42.57;100377.22;5080350;28;20028;-69
2023/05/17 09:01:10;;;;;;;4.97;1.17;;;;;;;18.34;42.81;100374.34;5078711;28;20024;-69
2023/05/17 09:03:39;;;;;;;7.80;1.40;;;;;;;18.41;41.98;100363.47;5087481;28;20046;-69
2023/05/17 09:06:06;;;;;;;10.68;1.92;;;;;;;18.46;42.45;100367.72;5086340;28;20029;-69
2023/05/17 09:08:31;;;;;;;7.95;1.10;;;;;;;18.46;42.19;100358.88;5087122;28;20036;-69
2023/05/17 09:10:58;;;;;;;7.57;1.63;;;;;;;18.53;41.93;100355.03;5079980;28;20032;-70
2023/05/17 09:13:24;;;;;;;6.88;1.20;;;;;;;18.49;42.51;100361.41;5081325;28;20048;-69
2023/05/17 09:15:50;;;;;;;6.40;1.30;;;;;;;18.35;42.00;100360.09;5079689;28;20472;-71
2023/05/17 09:18:16;;;;;;;5.37;1.60;;;;;;;17.94;41.33;100363.22;5086830;28;20084;-69
2023/05/17 09:20:49;;;;;;;7.20;1.13;;;;;;;17.63;41.67;100360.69;5089668;28;20043;-69
2023/05/17 09:23:19;;;;;;;7.43;1.10;;;;;;;17.79;42.58;100353.06;5093678;28;20035;-69
2023/05/17 09:25:49;;;;;;;7.07;1.30;;;;;;;18.04;41.70;100353.16;5099059;28;20040;-69
2023/05/17 09:28:17;;;;;;;7.77;1.80;;;;;;;18.23;41.07;100336.53;5099973;28;20153;-70
2023/05/17 09:30:42;;;;;;;7.00;1.17;;;;;;;18.39;40.75;100349.31;5099943;28;20369;-70
2023/05/17 09:33:09;;;;;;;6.80;1.37;;;;;;;18.54;40.55;100347.91;5098578;28;20050;-69
2023/05/17 09:35:36;;;;;;;6.65;1.23;;;;;;;18.56;39.94;100346.94;5095603;28;20025;-69
2023/05/17 09:38:10;;;;;;;9.80;1.90;;;;;;;18.60;39.31;100348.56;5079467;28;20028;-70
2023/05/17 09:40:40;;;;;;;6.65;1.30;;;;;;;18.40;40.05;100345.72;5085444;28;20086;-70
2023/05/17 09:43:07;;;;;;;7.28;1.20;;;;;;;18.32;39.69;100344.22;5079592;28;20060;-69
2023/05/17 09:45:34;;;;;;;5.00;1.17;;;;;;;18.47;40.02;100339.28;5079229;28;20028;-70
2023/05/17 09:48:13;;;;;;;4.82;1.08;;;;;;;18.78;39.85;100340.81;5079235;28;20135;-69
2023/05/17 09:50:50;;;;;;;7.13;1.20;;;;;;;19.06;39.56;100331.78;5083682;28;20064;-71
2023/05/17 09:53:29;;;;;;;6.40;1.48;;;;;;;19.11;38.83;100329.81;5099507;28;20024;-69
2023/05/17 09:55:57;;;;;;;9.57;1.50;;;;;;;19.13;39.19;100327.94;5097808;28;20020;-70
2023/05/17 09:58:24;;;;;;;8.33;1.33;;;;;;;19.13;38.52;100319.94;5078272;28;20039;-69
2023/05/17 10:00:55;;;;;;;6.38;1.20;;;;;;;19.17;38.25;100329.59;5078853;28;20124;-70
2023/05/17 10:03:21;;;;;;;5.68;1.48;;;;;;;19.15;38.34;100320.75;5085473;28;20496;-71
2023/05/17 10:05:51;;;;;;;6.13;1.00;;;;;;;19.28;38.25;100331.81;5078936;28;20025;-70
2023/05/17 10:08:20;;;;;;;9.27;1.52;;;;;;;19.21;38.73;100324.97;5086127;28;20151;-69
2023/05/17 10:10:48;;;;;;;7.13;1.10;;;;;;;19.22;38.06;100319.59;5079067;28;20028;-69
2023/05/17 10:13:18;;;;;;;9.13;1.30;;;;;;;19.25;38.43;100320.41;5080276;28;20036;-69
2023/05/17 10:15:47;;;;;;;4.70;1.08;;;;;;;19.51;38.36;100322.00;5082948;28;20403;-69
2023/05/17 10:18:14;;;;;;;8.27;1.23;;;;;;;19.73;37.97;100324.69;5086154;28;20028;-70
2023/05/17 10:20:41;;;;;;;9.23;1.40;;;;;;;19.84;37.45;100318.00;5086949;28;20016;-69
2023/05/17 10:23:07;;;;;;;7.20;1.80;;;;;;;19.94;37.67;100314.06;5091292;28;20024;-70
2023/05/17 10:25:33;;;;;;;5.93;1.38;;;;;;;20.03;37.84;100312.81;5083701;28;20024;-69
2023/05/17 10:28:00;;;;;;;6.65;1.10;;;;;;;20.23;38.06;100307.44;5088149;28;20058;-70
2023/05/17 10:30:27;;;;;;;5.40;0.93;;;;;;;20.42;37.70;100303.13;5087838;28;20128;-70
2023/05/17 10:32:53;;;;;;;6.78;1.13;;;;;;;20.57;37.35;100301.56;5086661;28;20518;-71
2023/05/17 10:35:20;;;;;;;6.75;1.23;;;;;;;20.66;36.57;100306.47;5082393;28;20141;-71
2023/05/17 10:37:46;;;;;;;5.88;1.20;;;;;;;20.69;35.58;100298.28;5086856;28;20012;-71
2023/05/17 10:40:16;;;;;;;6.33;1.10;;;;;;;20.76;35.80;100296.22;5086229;28;20032;-70
2023/05/17 10:42:45;;;;;;;8.50;1.33;;;;;;;20.75;36.01;100283.78;5086314;28;20052;-70
2023/05/17 10:45:14;;;;;;;7.32;1.42;;;;;;;20.85;35.88;100295.81;5084703;28;20115;-70
2023/05/17 10:47:44;;;;;;;5.65;1.80;;;;;;;20.97;36.43;100298.88;5088575;28;20047;-70
2023/05/17 10:50:14;;;;;;;6.13;1.38;;;;;;;20.94;35.69;100295.41;5085104;28;20026;-69
2023/05/17 10:52:47;;;;;;;5.73;1.00;;;;;;;20.90;35.58;100299.16;5082468;28;20085;-69
2023/05/17 10:55:17;;;;;;;4.78;0.93;;;;;;;20.90;35.81;100300.97;5076051;28;20052;-70
2023/05/17 10:57:43;;;;;;;5.88;1.40;;;;;;;20.98;35.87;100292.56;5078208;28;20017;-70
2023/05/17 11:00:19;;;;;;;7.50;1.50;;;;;;;21.05;35.78;100291.34;5077697;28;20050;-70
2023/05/17 11:02:47;;;;;;;7.22;1.30;;;;;;;21.18;35.75;100292.50;5084334;28;20020;-70
2023/05/17 11:05:25;;;;;;;6.97;1.30;;;;;;;21.21;35.46;100295.03;5083432;28;20024;-69
2023/05/17 11:07:51;;;;;;;7.53;1.50;;;;;;;21.35;35.51;100283.63;5083822;28;20039;-70
2023/05/17 11:10:17;;;;;;;5.83;1.10;;;;;;;21.39;35.82;100284.38;5077688;28;20477;-69
2023/05/17 11:12:45;;;;;;;6.32;1.10;;;;;;;21.50;35.66;100290.03;5078827;28;20058;-69
2023/05/17 11:15:13;;;;;;;7.80;1.40;;;;;;;21.65;35.43;100279.56;5076483;28;20040;-70
2023/05/17 11:17:51;;;;;;;7.68;1.27;;;;;;;21.66;35.08;100270.56;5091912;28;20032;-70
2023/05/17 11:20:25;;;;;;;7.13;1.10;;;;;;;21.80;35.12;100270.72;5087872;28;20024;-70
2023/05/17 11:23:04;;;;;;;8.48;1.40;;;;;;;21.98;35.31;100265.34;5076642;28;20029;-71
2023/05/17 11:25:31;;;;;;;7.13;1.38;;;;;;;22.14;35.23;100260.06;5076068;28;20028;-72